Ashland, Maine
Current Conditions -  °F | °C
As of 8:15 PM on Thursday 27 Nov 2014 (Local Time) from KPQI Reporting Station
Clear Clear  
Wind Chill:   Ceiling: Unl
Heat Index: 16°   Visibility: 10mi
Dew Point: 10°   Wind: 6mph
Humidity: 79%   Direction: 310°NW
Pressure: 29.98"   Gusts: NA
Location:  46.63°N, 68.41°W
Report Text: KPQI 280115Z AUTO 31005KT 10SM CLR M09/M12 A2998 RMK AO1
Loading
Personal Weather Stations






























Interactive Weather Map New forecast layout! Learn more

10-Day Weather Forecast

Advertisements
Track Severe Weather on mobile